»·PEaware :: N324MP KMYF-KLAS

N324MP :: KMYF-KLAS

FLIGHT INFORMATION

Flight Status: Arrived
Operator: Privately registered:
United States
More flights under this callsign
Pilot: Michael P. (17418)
Aircraft: BEECH AIRCRAFT SUPER KING AIR 350
(B350)
More flights by this aircraft type
Origin: KMYF Montgomery
United States
Destination: KLAS McCarran Intl
United States
More flights between these airports :: More routes between these airports
Route: +JLI V208 TNP V538 LAS
File this flight plan on PilotEdge
Remarks: NEW TO PILOT EDGE 2ND FLIGHT
Altitude:
(Current/Filed)
19,000ft
Speed:
(Current/Filed)
250kts
Departed: 03-Dec-17 04:18 PM
Arrived: 03-Dec-17 05:22 PM
Distance/Time
Traveled:
219nm/1:04
Distance/Time
To Go:
Arrived

Flight Plot

Page will automatically refresh every two minutes.

Flight plan parsing failed; only flown route is shown


Map Options




Map Legend


Flown Route
Filed Route
Departure Airport
Arrival Airport
Navaid (VOR, NDB)
Fix

Horizontal Profiles

Position Reports

Time Latitude Longitude Heading Altitude Ground
Speed
03-Dec-17 16:00 32.811447 -117.141294 0 431ft 0kts
03-Dec-17 16:01 32.811447 -117.141294 0 431ft 0kts
03-Dec-17 16:02 32.811447 -117.141294 0 431ft 0kts
03-Dec-17 16:03 32.811447 -117.141294 0 431ft 0kts
03-Dec-17 16:04 32.811447 -117.141294 0 431ft 0kts
03-Dec-17 16:05 32.811447 -117.141294 0 431ft 0kts
03-Dec-17 16:06 32.811447 -117.141294 0 431ft 0kts
03-Dec-17 16:07 32.811447 -117.141294 0 431ft 0kts
03-Dec-17 16:08 32.811447 -117.141294 0 431ft 0kts
03-Dec-17 16:09 32.811448 -117.141294 359 431ft 0kts
03-Dec-17 16:10 32.811449 -117.141294 0 431ft 0kts
03-Dec-17 16:11 32.811450 -117.141294 359 431ft 0kts
03-Dec-17 16:12 32.811451 -117.141294 359 431ft 0kts
03-Dec-17 16:13 32.811453 -117.141294 0 431ft 0kts
03-Dec-17 16:14 32.811455 -117.141294 0 431ft 0kts
03-Dec-17 16:15 32.811457 -117.141294 0 431ft 0kts
03-Dec-17 16:16 32.811589 -117.141801 271 431ft 2kts
03-Dec-17 16:17 32.812334 -117.142982 19 431ft 9kts
03-Dec-17 16:18 32.813769 -117.142252 33 431ft 11kts
03-Dec-17 16:19 32.813534 -117.138588 115 431ft 17kts
03-Dec-17 16:20 32.812398 -117.135685 111 431ft 16kts
03-Dec-17 16:21 32.812420 -117.132159 23 431ft 0kts
03-Dec-17 16:22 32.813156 -117.132081 323 431ft 15kts
03-Dec-17 16:23 32.825849 -117.164915 294 1006ft 164kts
03-Dec-17 16:24 32.848603 -117.223903 294 2056ft 215kts
03-Dec-17 16:25 32.890097 -117.267755 12 3063ft 224kts
03-Dec-17 16:26 32.922246 -117.208026 73 4087ft 229kts
03-Dec-17 16:27 32.935208 -117.132828 82 5092ft 235kts
03-Dec-17 16:28 32.941504 -117.053434 81 6068ft 241kts
03-Dec-17 16:29 32.964984 -116.980111 63 7072ft 246kts
03-Dec-17 16:30 32.977968 -116.911514 78 7926ft 256kts
03-Dec-17 16:31 33.000299 -116.833392 59 8944ft 254kts
03-Dec-17 16:32 33.037910 -116.761083 53 9849ft 259kts
03-Dec-17 16:33 33.079198 -116.690106 52 10728ft 261kts
03-Dec-17 16:34 33.121475 -116.618316 51 11329ft 266kts
03-Dec-17 16:35 33.175369 -116.559614 32 11931ft 262kts
03-Dec-17 16:36 33.234678 -116.508465 30 12531ft 262kts
03-Dec-17 16:37 33.294529 -116.458315 30 13130ft 263kts
03-Dec-17 16:38 33.354641 -116.408178 30 13728ft 264kts
03-Dec-17 16:39 33.415170 -116.357683 30 14329ft 265kts
03-Dec-17 16:40 33.475660 -116.307150 30 14928ft 265kts
03-Dec-17 16:41 33.536277 -116.256426 30 15526ft 266kts
03-Dec-17 16:42 33.597250 -116.205317 30 16126ft 267kts
03-Dec-17 16:43 33.658186 -116.154149 30 16725ft 268kts
03-Dec-17 16:44 33.719260 -116.102774 30 17323ft 268kts
03-Dec-17 16:45 33.780995 -116.050762 30 17793ft 271kts
03-Dec-17 16:46 33.842711 -115.998650 30 18291ft 271kts
03-Dec-17 16:47 33.904547 -115.946349 30 18789ft 272kts
03-Dec-17 16:48 33.956511 -115.902352 30 19002ft 278kts
03-Dec-17 16:49 34.031438 -115.838754 30 19001ft 284kts
03-Dec-17 16:50 34.095762 -115.783153 34 19001ft 286kts
03-Dec-17 16:51 34.156358 -115.719946 38 19001ft 288kts
03-Dec-17 16:52 34.215249 -115.654311 39 19001ft 288kts
03-Dec-17 16:53 34.264101 -115.599309 39 19001ft 288kts
03-Dec-17 16:54 34.325747 -115.538062 24 19001ft 283kts
03-Dec-17 16:55 34.409393 -115.494292 15 19001ft 280kts
03-Dec-17 16:56 34.470213 -115.467050 15 19001ft 280kts
03-Dec-17 16:57 34.543592 -115.434876 14 19001ft 280kts
03-Dec-17 16:58 34.628936 -115.397566 14 19001ft 280kts
03-Dec-17 16:59 34.689946 -115.370859 14 19001ft 280kts
03-Dec-17 17:00 34.763342 -115.338671 14 19001ft 280kts
03-Dec-17 17:01 34.830922 -115.309004 14 19001ft 280kts
03-Dec-17 17:02 34.904094 -115.276809 14 19001ft 280kts
03-Dec-17 17:03 34.977505 -115.244439 14 19001ft 280kts
03-Dec-17 17:04 35.050664 -115.212113 14 18966ft 281kts
03-Dec-17 17:05 35.129138 -115.183478 3 17716ft 296kts
03-Dec-17 17:06 35.210102 -115.176298 357 16373ft 284kts
03-Dec-17 17:07 35.288263 -115.173922 356 14682ft 277kts
03-Dec-17 17:08 35.364631 -115.172394 356 12878ft 271kts
03-Dec-17 17:09 35.439333 -115.171060 356 10890ft 266kts
03-Dec-17 17:10 35.511714 -115.169764 355 9322ft 255kts
03-Dec-17 17:11 35.582349 -115.168550 356 8045ft 250kts
03-Dec-17 17:12 35.651592 -115.167496 1 7065ft 243kts
03-Dec-17 17:13 35.716746 -115.166119 355 6951ft 234kts
03-Dec-17 17:14 35.784459 -115.165081 356 6943ft 248kts
03-Dec-17 17:15 35.854817 -115.163951 1 5966ft 238kts
03-Dec-17 17:16 35.913756 -115.162709 358 5942ft 194kts
03-Dec-17 17:17 35.960759 -115.145151 38 5946ft 183kts
03-Dec-17 17:18 36.001011 -115.108964 23 5954ft 177kts
03-Dec-17 17:19 36.035383 -115.066396 53 5956ft 174kts
03-Dec-17 17:20 36.064247 -115.016697 55 5973ft 198kts
03-Dec-17 17:21 36.105945 -114.979960 342 6214ft 173kts
03-Dec-17 17:22 36.141354 -115.016673 300 5643ft 178kts
03-Dec-17 17:23 36.160910 -115.069192 280 5086ft 161kts
03-Dec-17 17:24 36.150322 -115.120470 223 3746ft 152kts
03-Dec-17 17:25 36.116447 -115.146956 203 2571ft 143kts
03-Dec-17 17:26 36.085107 -115.164818 204 2185ft 56kts
03-Dec-17 17:27 36.082190 -115.166771 271 2185ft 0kts
03-Dec-17 17:28 36.084110 -115.167536 28 2185ft 10kts
03-Dec-17 17:29 36.085912 -115.167502 302 2185ft 0kts
03-Dec-17 17:30 36.086316 -115.167580 23 2185ft 0kts
03-Dec-17 17:31 36.086316 -115.167580 23 2185ft 0kts

Navigation Log

Ident Type
Flight plan parsing failed, navigation log unavailable